createdAt,value
2018-04-29T00:01:22.737Z,78.97
2018-04-29T00:03:51.775Z,75.93
2018-04-29T00:06:21.405Z,76.83
2018-04-29T00:08:50.480Z,76.90
2018-04-29T00:11:20.852Z,75.04
2018-04-29T00:13:49.907Z,76.78
2018-04-29T00:16:19.686Z,76.92
2018-04-29T00:18:48.738Z,76.70
2018-04-29T00:21:17.788Z,76.33
2018-04-29T00:23:47.789Z,77.56
2018-04-29T00:26:17.474Z,77.02
2018-04-29T00:28:48.455Z,75.80
2018-04-29T00:31:17.802Z,81.56
2018-04-29T00:33:46.861Z,81.38
2018-04-29T00:36:16.138Z,79.20
2018-04-29T00:38:45.209Z,81.81
2018-04-29T00:41:14.753Z,78.63
2018-04-29T00:43:43.817Z,79.30
2018-04-29T00:46:14.222Z,81.35
2018-04-29T00:48:43.256Z,83.17
2018-04-29T00:51:13.026Z,80.07
2018-04-29T00:53:44.801Z,81.70
2018-04-29T00:56:13.864Z,82.83
2018-04-29T00:58:44.509Z,83.98
2018-04-29T01:01:13.565Z,83.97
2018-04-29T01:03:45.161Z,83.97
2018-04-29T01:06:14.213Z,81.30
2018-04-29T01:08:44.178Z,81.72
2018-04-29T01:11:13.314Z,82.95
2018-04-29T01:13:43.294Z,84.07
2018-04-29T01:16:16.109Z,84.22
2018-04-29T01:18:45.368Z,85.14
2018-04-29T01:21:19.533Z,85.39
2018-04-29T01:23:49.203Z,83.81
2018-04-29T01:26:18.241Z,82.30
2018-04-29T01:28:47.933Z,81.70
2018-04-29T01:31:16.979Z,83.42
2018-04-29T01:33:46.114Z,82.94
2018-04-29T01:36:15.162Z,82.41
2018-04-29T01:38:45.179Z,83.25
2018-04-29T01:41:14.441Z,83.07
2018-04-29T01:43:44.007Z,83.88
2018-04-29T01:46:15.011Z,84.36
2018-04-29T01:48:44.250Z,83.46
2018-04-29T01:51:13.431Z,83.17
2018-04-29T01:53:42.488Z,82.67
2018-04-29T01:56:11.551Z,82.96
2018-04-29T01:58:40.741Z,82.61
2018-04-29T02:01:09.820Z,80.93
2018-04-29T02:03:38.927Z,81.00
2018-04-29T02:06:08.032Z,81.63
2018-04-29T02:08:37.262Z,84.27
2018-04-29T02:11:06.318Z,82.70
2018-04-29T02:13:35.377Z,83.73
2018-04-29T02:16:04.438Z,82.93
2018-04-29T02:18:37.303Z,81.56
2018-04-29T02:21:06.403Z,81.95
2018-04-29T02:23:35.617Z,82.01
2018-04-29T02:26:06.641Z,81.42
2018-04-29T02:28:35.791Z,80.98
2018-04-29T02:31:05.958Z,81.41
2018-04-29T02:33:37.020Z,81.83
2018-04-29T02:36:07.054Z,82.42
2018-04-29T02:38:38.260Z,81.42
2018-04-29T02:43:43.053Z,81.27
2018-04-29T02:46:13.057Z,80.50
2018-04-29T02:48:42.106Z,79.94
2018-04-29T02:51:12.199Z,79.52
2018-04-29T02:56:18.421Z,80.06
2018-04-29T02:58:47.486Z,80.10
2018-04-29T03:01:16.547Z,79.52
2018-04-29T03:03:46.505Z,80.54
2018-04-29T03:08:51.330Z,80.53
2018-04-29T03:11:21.403Z,80.53
2018-04-29T03:13:50.434Z,80.78
2018-04-29T03:16:19.823Z,80.48
2018-04-29T03:18:49.002Z,80.93
2018-04-29T03:21:19.110Z,80.64
2018-04-29T03:23:48.255Z,81.61
2018-04-29T03:28:56.356Z,81.23
2018-04-29T03:31:29.160Z,81.12
2018-04-29T03:33:58.194Z,81.52
2018-04-29T03:36:27.310Z,82.26
2018-04-29T03:38:56.357Z,81.66
2018-04-29T03:41:25.415Z,82.37
2018-04-29T03:43:54.815Z,82.86
2018-04-29T03:49:00.060Z,84.37
2018-04-29T03:51:30.140Z,85.07
2018-04-29T03:53:59.169Z,86.44
2018-04-29T03:56:32.274Z,86.02
2018-04-29T04:02:06.611Z,84.54
2018-04-29T04:09:47.277Z,86.00
2018-04-29T04:12:16.353Z,82.74
2018-04-29T04:14:45.403Z,84.70
2018-04-29T04:17:14.453Z,83.11
2018-04-29T04:19:43.506Z,84.66
2018-04-29T04:22:13.502Z,84.03
2018-04-29T04:24:42.931Z,84.96
2018-04-29T04:27:11.980Z,86.05
2018-04-29T04:29:41.019Z,87.14
2018-04-29T04:32:11.037Z,87.78
2018-04-29T04:34:40.450Z,87.44
2018-04-29T04:37:09.477Z,87.36
2018-04-29T04:39:38.541Z,86.54
2018-04-29T04:42:08.700Z,85.81
2018-04-29T04:47:13.445Z,85.21
2018-04-29T04:49:42.514Z,85.82
2018-04-29T04:52:12.111Z,87.61
2018-04-29T04:54:41.188Z,87.98
2018-04-29T04:57:11.249Z,86.15
2018-04-29T04:59:40.313Z,85.64
2018-04-29T05:02:09.374Z,84.64
2018-04-29T05:04:38.792Z,84.49
2018-04-29T05:09:43.511Z,84.00
2018-04-29T05:12:12.558Z,83.08
2018-04-29T05:14:42.725Z,83.86
2018-04-29T05:17:12.155Z,83.34
2018-04-29T05:19:42.126Z,83.86
2018-04-29T05:22:12.241Z,84.10
2018-04-29T05:24:42.758Z,83.51
2018-04-29T05:27:11.863Z,83.30
2018-04-29T05:32:16.678Z,82.86
2018-04-29T05:34:45.931Z,81.89
2018-04-29T05:37:14.974Z,82.23
2018-04-29T05:39:44.944Z,82.35
2018-04-29T05:42:15.002Z,82.57
2018-04-29T05:44:44.187Z,82.73
2018-04-29T05:47:13.233Z,82.35
2018-04-29T05:49:42.293Z,81.31
2018-04-29T05:52:11.337Z,81.31
2018-04-29T05:57:29.165Z,80.30
2018-04-29T06:00:08.377Z,80.02
2018-04-29T06:02:47.986Z,80.67
2018-04-29T06:05:31.852Z,78.89
2018-04-29T06:08:13.157Z,77.83
2018-04-29T06:10:53.305Z,76.78
2018-04-29T06:13:34.509Z,77.08
2018-04-29T06:16:16.977Z,75.83
2018-04-29T06:18:59.847Z,75.44
2018-04-29T06:21:41.369Z,74.07
2018-04-29T06:27:02.942Z,72.36
2018-04-29T06:35:01.291Z,69.85
2018-04-29T06:37:42.019Z,71.49
2018-04-29T06:40:22.609Z,71.25
2018-04-29T06:43:02.072Z,68.96
2018-04-29T06:45:44.030Z,69.83
2018-04-29T06:48:23.300Z,70.72
2018-04-29T06:51:02.375Z,70.50
2018-04-29T06:56:25.063Z,68.78
2018-04-29T06:59:07.088Z,66.67
2018-04-29T07:01:50.059Z,68.70
2018-04-29T07:04:30.346Z,68.26
2018-04-29T07:07:00.023Z,66.13
2018-04-29T07:09:29.554Z,65.65
2018-04-29T07:11:58.582Z,66.46
2018-04-29T07:14:28.986Z,64.37
2018-04-29T07:19:33.756Z,65.21
2018-04-29T07:22:02.826Z,65.17
2018-04-29T07:24:31.864Z,64.37
2018-04-29T07:27:00.923Z,64.72
2018-04-29T07:29:30.023Z,64.74
2018-04-29T07:31:59.106Z,64.34
2018-04-29T07:34:28.789Z,63.70
2018-04-29T07:36:57.859Z,61.68
2018-04-29T07:39:27.396Z,61.70
2018-04-29T07:41:56.447Z,61.24
2018-04-29T07:44:25.498Z,62.21
2018-04-29T07:46:56.485Z,61.23
2018-04-29T07:49:25.555Z,60.86
2018-04-29T07:51:54.598Z,60.04
2018-04-29T07:54:24.561Z,60.78
2018-04-29T07:56:54.583Z,61.03
2018-04-29T07:59:23.809Z,56.83
2018-04-29T08:04:28.794Z,59.50
2018-04-29T08:06:58.046Z,56.95
2018-04-29T08:09:27.183Z,57.66
2018-04-29T08:11:56.266Z,55.71
2018-04-29T08:14:25.309Z,55.62
2018-04-29T08:19:30.241Z,54.42
2018-04-29T08:22:01.035Z,57.29
2018-04-29T08:24:30.225Z,56.59
2018-04-29T08:27:00.180Z,54.26
2018-04-29T08:29:29.337Z,49.99
2018-04-29T08:31:59.312Z,54.39
2018-04-29T08:34:28.513Z,51.76
2018-04-29T08:39:34.007Z,51.95
2018-04-29T08:44:39.500Z,52.70
2018-04-29T08:47:08.709Z,51.25
2018-04-29T08:49:39.091Z,51.48
2018-04-29T08:52:08.140Z,51.87
2018-04-29T08:54:37.540Z,52.28
2018-04-29T08:57:07.598Z,52.26
2018-04-29T08:59:36.668Z,48.17
2018-04-29T09:02:05.812Z,48.29
2018-04-29T09:04:34.919Z,44.67
2018-04-29T09:07:04.093Z,46.18
2018-04-29T09:09:33.177Z,42.19
2018-04-29T09:12:02.341Z,42.16
2018-04-29T09:14:31.433Z,41.36
2018-04-29T09:17:01.254Z,39.71
2018-04-29T09:19:30.404Z,40.09
2018-04-29T09:21:59.948Z,38.48
2018-04-29T09:24:29.127Z,35.26
2018-04-29T09:29:34.049Z,36.85
2018-04-29T09:32:03.185Z,30.88
2018-04-29T09:34:32.369Z,36.47
2018-04-29T09:37:01.815Z,31.93
2018-04-29T09:39:31.082Z,32.89
2018-04-29T09:42:00.170Z,33.88
2018-04-29T09:44:29.792Z,31.07
2018-04-29T09:46:59.658Z,29.62
2018-04-29T09:52:05.348Z,28.43
2018-04-29T09:54:34.667Z,29.78
2018-04-29T10:02:17.059Z,26.12
2018-04-29T10:04:47.414Z,29.18
2018-04-29T10:09:52.251Z,30.98
2018-04-29T10:12:22.682Z,30.79
2018-04-29T10:14:51.785Z,30.67
2018-04-29T10:17:21.522Z,27.99
2018-04-29T10:19:50.582Z,29.28
2018-04-29T10:22:19.650Z,28.26
2018-04-29T10:24:49.580Z,31.03
2018-04-29T10:27:18.651Z,29.24
2018-04-29T10:29:48.124Z,27.54
2018-04-29T10:32:17.658Z,27.48
2018-04-29T10:34:46.706Z,25.79
2018-04-29T10:37:16.514Z,27.08
2018-04-29T10:39:45.548Z,28.33
2018-04-29T10:44:50.415Z,29.06
2018-04-29T10:47:19.482Z,27.51
2018-04-29T10:52:15.066Z,29.21
2018-04-29T10:54:44.152Z,26.23
2018-04-29T10:57:13.734Z,27.37
2018-04-29T10:59:43.248Z,23.77
2018-04-29T11:04:48.109Z,24.40
2018-04-29T11:07:17.354Z,23.61
2018-04-29T11:09:46.403Z,22.63
2018-04-29T11:12:15.453Z,21.67
2018-04-29T11:14:45.028Z,21.34
2018-04-29T11:17:14.622Z,23.45
2018-04-29T11:19:43.856Z,22.32
2018-04-29T11:22:13.435Z,18.77
2018-04-29T11:27:18.195Z,17.90
2018-04-29T11:32:22.959Z,17.15
2018-04-29T11:34:52.542Z,18.17
2018-04-29T11:37:21.578Z,18.83
2018-04-29T11:39:51.042Z,17.57
2018-04-29T11:42:20.166Z,17.90
2018-04-29T11:47:25.007Z,15.96
2018-04-29T11:52:30.067Z,17.36
2018-04-29T11:55:00.062Z,17.75
2018-04-29T11:57:29.842Z,14.80
2018-04-29T11:59:59.040Z,16.01
2018-04-29T12:02:28.442Z,16.19
2018-04-29T12:04:57.490Z,15.80
2018-04-29T12:07:26.816Z,16.66
2018-04-29T12:12:31.578Z,18.15
2018-04-29T12:15:00.686Z,14.56
2018-04-29T12:17:30.233Z,15.66
2018-04-29T12:19:59.674Z,13.40
2018-04-29T12:22:28.680Z,15.79
2018-04-29T12:24:58.626Z,15.93
2018-04-29T12:27:27.679Z,13.21
2018-04-29T12:29:56.735Z,14.85
2018-04-29T12:32:25.839Z,14.65
2018-04-29T12:34:55.479Z,15.96
2018-04-29T12:37:24.522Z,16.29
2018-04-29T12:39:53.892Z,15.81
2018-04-29T12:42:22.914Z,14.79
2018-04-29T12:44:51.986Z,14.29
2018-04-29T12:47:22.009Z,14.29
2018-04-29T12:49:52.182Z,14.82
2018-04-29T12:52:22.182Z,13.92
2018-04-29T12:54:51.690Z,14.22
2018-04-29T12:57:21.170Z,13.60
2018-04-29T12:59:50.193Z,15.82
2018-04-29T13:02:19.986Z,16.02
2018-04-29T13:04:50.030Z,14.45
2018-04-29T13:07:19.367Z,14.04
2018-04-29T13:09:49.203Z,14.85
2018-04-29T13:12:18.271Z,16.25
2018-04-29T13:14:47.375Z,18.53
2018-04-29T13:17:16.657Z,17.70
2018-04-29T13:19:45.994Z,17.62
2018-04-29T13:22:16.255Z,16.99
2018-04-29T13:24:45.731Z,16.42
2018-04-29T13:27:15.185Z,15.35
2018-04-29T13:29:44.247Z,16.87
2018-04-29T13:32:13.289Z,18.05
2018-04-29T13:34:42.461Z,17.67
2018-04-29T13:37:12.130Z,17.08
2018-04-29T13:39:41.376Z,18.26
2018-04-29T13:42:10.531Z,18.07
2018-04-29T13:44:39.594Z,18.66
2018-04-29T13:47:12.272Z,18.18
2018-04-29T13:49:42.178Z,16.20
2018-04-29T13:52:27.740Z,16.35
2018-04-29T13:55:11.067Z,15.00
2018-04-29T14:00:35.290Z,14.12
2018-04-29T14:03:10.465Z,14.30
2018-04-29T14:05:43.630Z,14.11
2018-04-29T14:08:16.503Z,15.95
2018-04-29T14:10:49.351Z,16.72
2018-04-29T14:13:21.728Z,17.14
2018-04-29T14:15:54.652Z,15.90
2018-04-29T14:18:23.687Z,15.39
2018-04-29T14:20:53.170Z,15.27
2018-04-29T14:23:22.213Z,14.44
2018-04-29T14:25:51.262Z,15.88
2018-04-29T14:28:20.603Z,17.40
2018-04-29T14:30:49.666Z,19.28
2018-04-29T14:33:19.246Z,21.64
2018-04-29T14:35:48.646Z,22.56
2018-04-29T14:38:17.685Z,22.41
2018-04-29T14:43:23.704Z,18.03
2018-04-29T14:48:29.344Z,16.64
2018-04-29T14:50:58.427Z,16.35
2018-04-29T14:53:27.477Z,16.56
2018-04-29T14:55:56.591Z,17.11
2018-04-29T14:58:26.399Z,16.42
2018-04-29T15:00:55.445Z,18.63
2018-04-29T15:03:24.508Z,18.89
2018-04-29T15:05:53.556Z,20.36
2018-04-29T15:08:22.636Z,19.85
2018-04-29T15:10:52.389Z,18.40
2018-04-29T15:15:57.332Z,18.02
2018-04-29T15:18:45.612Z,18.40
2018-04-29T15:21:14.732Z,19.68
2018-04-29T15:23:44.469Z,20.22
2018-04-29T15:26:13.565Z,20.79
2018-04-29T15:28:42.723Z,24.22
2018-04-29T15:31:12.351Z,23.27
2018-04-29T15:33:41.398Z,23.04
2018-04-29T15:36:10.755Z,23.88
2018-04-29T15:38:39.817Z,22.22
2018-04-29T15:41:08.892Z,20.40
2018-04-29T15:43:38.437Z,18.02
2018-04-29T15:46:07.480Z,17.13
2018-04-29T15:48:36.968Z,16.47
2018-04-29T15:51:06.035Z,16.61
2018-04-29T15:53:35.086Z,17.29
2018-04-29T15:56:04.135Z,16.97
2018-04-29T15:58:33.185Z,16.56
2018-04-29T16:01:02.634Z,16.05
2018-04-29T16:03:31.753Z,15.94
2018-04-29T16:06:00.992Z,16.01
2018-04-29T16:08:30.526Z,16.37
2018-04-29T16:10:59.577Z,17.63
2018-04-29T16:13:28.663Z,19.25
2018-04-29T16:15:58.528Z,19.30
2018-04-29T16:18:27.578Z,21.26
2018-04-29T16:20:57.612Z,21.38
2018-04-29T16:23:26.853Z,22.02
2018-04-29T16:25:55.916Z,23.36
2018-04-29T16:28:24.983Z,24.18
2018-04-29T16:30:54.476Z,24.04
2018-04-29T16:33:23.518Z,25.55
2018-04-29T16:38:28.426Z,24.23
2018-04-29T16:40:58.003Z,25.40
2018-04-29T16:43:27.045Z,26.04
2018-04-29T16:48:31.868Z,25.93
2018-04-29T16:51:01.208Z,26.39
2018-04-29T16:53:30.255Z,26.54
2018-04-29T16:56:00.177Z,26.68
2018-04-29T16:58:29.505Z,28.02
2018-04-29T17:00:58.566Z,27.90
2018-04-29T17:03:27.614Z,28.26
2018-04-29T17:05:57.238Z,28.09
2018-04-29T17:08:26.292Z,27.52
2018-04-29T17:11:40.198Z,28.67
2018-04-29T17:14:09.350Z,28.89
2018-04-29T17:16:38.648Z,28.44
2018-04-29T17:19:07.686Z,28.83
2018-04-29T17:21:36.757Z,28.51
2018-04-29T17:24:06.079Z,28.37
2018-04-29T17:26:35.122Z,28.64
2018-04-29T17:29:04.228Z,28.79
2018-04-29T17:31:33.414Z,29.62
2018-04-29T17:34:02.450Z,29.45
2018-04-29T17:36:31.511Z,29.13
2018-04-29T17:39:01.142Z,29.24
2018-04-29T17:44:06.638Z,29.82
2018-04-29T17:49:11.401Z,30.09
2018-04-29T17:54:16.200Z,30.34
2018-04-29T17:56:45.255Z,30.73
2018-04-29T17:59:14.451Z,30.39
2018-04-29T18:01:43.529Z,30.80
2018-04-29T18:04:12.582Z,30.99
2018-04-29T18:06:41.628Z,31.17
2018-04-29T18:09:10.754Z,30.58
2018-04-29T18:14:15.555Z,30.84
2018-04-29T18:16:44.683Z,30.51
2018-04-29T18:19:14.915Z,30.57
2018-04-29T18:21:43.966Z,31.98
2018-04-29T18:24:13.947Z,30.81
2018-04-29T18:26:43.147Z,31.36
2018-04-29T18:29:12.222Z,31.50
2018-04-29T18:31:41.300Z,31.64
2018-04-29T18:34:10.342Z,32.69
2018-04-29T18:36:39.574Z,32.26
2018-04-29T18:39:08.724Z,32.81
2018-04-29T18:41:37.822Z,33.17
2018-04-29T18:44:07.282Z,32.57
2018-04-29T18:46:36.437Z,32.35
2018-04-29T18:49:05.522Z,33.54
2018-04-29T18:51:34.599Z,33.81
2018-04-29T18:54:03.762Z,33.98
2018-04-29T18:56:33.699Z,33.25
2018-04-29T18:59:02.866Z,34.33
2018-04-29T19:01:32.087Z,33.55
2018-04-29T19:04:01.151Z,33.49
2018-04-29T19:09:08.240Z,33.35
2018-04-29T19:11:37.297Z,33.82
2018-04-29T19:14:06.377Z,34.37
2018-04-29T19:16:35.522Z,35.24
2018-04-29T19:19:04.589Z,35.46
2018-04-29T19:24:10.067Z,34.45
2018-04-29T19:26:39.031Z,34.02
2018-04-29T19:29:08.072Z,34.30
2018-04-29T19:31:37.339Z,35.05
2018-04-29T19:34:06.496Z,34.84
2018-04-29T19:39:11.359Z,33.58
2018-04-29T19:41:40.422Z,33.73
2018-04-29T19:44:09.785Z,34.02
2018-04-29T19:46:39.069Z,35.04
2018-04-29T19:49:08.126Z,33.97
2018-04-29T19:51:37.173Z,33.75
2018-04-29T19:54:06.242Z,34.39
2018-04-29T19:56:35.348Z,34.62
2018-04-29T19:59:04.652Z,34.28
2018-04-29T20:01:34.666Z,34.78
2018-04-29T20:04:03.756Z,34.63
2018-04-29T20:06:33.104Z,35.08
2018-04-29T20:09:02.170Z,35.27
2018-04-29T20:11:32.164Z,35.36
2018-04-29T20:14:01.211Z,35.73
2018-04-29T20:16:31.286Z,35.10
2018-04-29T20:19:00.572Z,35.51
2018-04-29T20:21:30.709Z,35.06
2018-04-29T20:23:59.770Z,35.39
2018-04-29T20:26:28.890Z,35.51
2018-04-29T20:28:57.945Z,35.61
2018-04-29T20:34:10.468Z,35.76
2018-04-29T20:39:15.254Z,35.70
2018-04-29T20:41:44.351Z,35.31
2018-04-29T20:44:13.485Z,35.36
2018-04-29T20:46:42.662Z,35.82
2018-04-29T20:49:11.694Z,35.71
2018-04-29T20:51:40.749Z,35.85
2018-04-29T20:54:09.907Z,36.17
2018-04-29T20:56:38.971Z,36.24
2018-04-29T20:59:09.995Z,36.16
2018-04-29T21:01:39.050Z,36.58
2018-04-29T21:04:08.242Z,36.80
2018-04-29T21:06:38.619Z,37.11
2018-04-29T21:09:07.655Z,37.09
2018-04-29T21:11:36.711Z,37.47
2018-04-29T21:14:05.922Z,37.86
2018-04-29T21:16:34.984Z,38.38
2018-04-29T21:19:04.052Z,37.91
2018-04-29T21:21:33.199Z,37.94
2018-04-29T21:26:38.045Z,38.45
2018-04-29T21:29:07.077Z,38.03
2018-04-29T21:31:36.226Z,38.25
2018-04-29T21:34:05.345Z,37.92
2018-04-29T21:36:34.405Z,38.19
2018-04-29T21:39:03.459Z,37.89
2018-04-29T21:41:32.606Z,38.03
2018-04-29T21:44:01.711Z,38.10
2018-04-29T21:46:30.993Z,37.98
2018-04-29T21:49:01.039Z,38.43
2018-04-29T21:51:30.099Z,37.99
2018-04-29T21:54:00.162Z,38.13
2018-04-29T21:56:43.571Z,37.94
2018-04-29T21:59:14.597Z,38.76
2018-04-29T22:01:43.823Z,38.94
2018-04-29T22:04:12.899Z,39.49
2018-04-29T22:06:41.902Z,40.00
2018-04-29T22:09:11.186Z,39.97
2018-04-29T22:11:40.261Z,40.24
2018-04-29T22:16:45.103Z,40.60
2018-04-29T22:19:14.170Z,39.97
2018-04-29T22:21:43.274Z,40.73
2018-04-29T22:24:12.387Z,40.69
2018-04-29T22:26:41.623Z,40.86
2018-04-29T22:29:10.662Z,41.67
2018-04-29T22:31:39.754Z,42.04
2018-04-29T22:34:08.806Z,41.44
2018-04-29T22:36:37.842Z,41.40
2018-04-29T22:39:07.918Z,41.68
2018-04-29T22:41:36.965Z,42.14
2018-04-29T22:44:07.149Z,41.81
2018-04-29T22:46:36.181Z,41.82
2018-04-29T22:49:05.469Z,41.92
2018-04-29T22:51:34.640Z,42.23
2018-04-29T22:56:39.409Z,43.21
2018-04-29T22:59:08.477Z,42.57
2018-04-29T23:01:37.548Z,43.12
2018-04-29T23:04:06.744Z,43.26
2018-04-29T23:06:35.792Z,42.50
2018-04-29T23:09:05.499Z,42.72
2018-04-29T23:11:34.563Z,42.75
2018-04-29T23:16:39.390Z,42.84
2018-04-29T23:19:08.441Z,43.44
2018-04-29T23:21:37.490Z,42.57
2018-04-29T23:24:06.655Z,43.25
2018-04-29T23:26:35.767Z,43.10
2018-04-29T23:31:40.670Z,43.18
2018-04-29T23:34:09.749Z,43.21
2018-04-29T23:36:39.090Z,43.00
2018-04-29T23:39:08.164Z,43.36
2018-04-29T23:41:37.217Z,43.62
2018-04-29T23:44:06.276Z,43.21
2018-04-29T23:46:35.331Z,42.79
2018-04-29T23:49:04.407Z,42.90
2018-04-29T23:51:33.538Z,43.72
2018-04-29T23:54:02.587Z,43.59
2018-04-29T23:56:31.686Z,43.13
